createdAt,value
2018-05-26T00:02:02.047Z,141.97
2018-05-26T00:04:28.543Z,141.50
2018-05-26T00:06:55.005Z,148.83
2018-05-26T00:09:22.234Z,144.67
2018-05-26T00:11:49.484Z,116.77
2018-05-26T00:14:16.699Z,120.90
2018-05-26T00:16:44.171Z,139.80
2018-05-26T00:19:10.643Z,123.77
2018-05-26T00:21:37.826Z,135.57
2018-05-26T00:24:04.266Z,122.27
2018-05-26T00:26:30.757Z,134.53
2018-05-26T00:28:57.187Z,136.77
2018-05-26T00:31:23.696Z,131.17
2018-05-26T00:34:03.986Z,120.17
2018-05-26T00:36:30.493Z,140.90
2018-05-26T00:38:57.005Z,129.13
2018-05-26T00:41:38.456Z,139.40
2018-05-26T00:44:04.936Z,136.67
2018-05-26T00:46:32.194Z,150.83
2018-05-26T00:48:58.670Z,145.93
2018-05-26T00:51:25.163Z,142.60
2018-05-26T00:53:51.668Z,158.73
2018-05-26T00:56:18.926Z,147.30
2018-05-26T00:58:45.517Z,152.33
2018-05-26T01:01:12.107Z,155.63
2018-05-26T01:03:40.679Z,157.83
2018-05-26T01:06:07.273Z,175.17
2018-05-26T01:08:34.562Z,166.40
2018-05-26T01:11:01.132Z,156.23
2018-05-26T01:13:27.653Z,154.23
2018-05-26T01:15:54.183Z,165.10
2018-05-26T01:18:20.720Z,148.83
2018-05-26T01:20:47.258Z,149.40
2018-05-26T01:23:13.791Z,147.03
2018-05-26T01:25:40.332Z,151.07
2018-05-26T01:28:06.875Z,140.67
2018-05-26T01:30:33.427Z,151.40
2018-05-26T01:33:14.358Z,151.03
2018-05-26T01:35:40.874Z,159.93
2018-05-26T01:38:08.027Z,159.77
2018-05-26T01:40:35.187Z,155.23
2018-05-26T01:43:01.668Z,159.13
2018-05-26T01:45:28.142Z,166.77
2018-05-26T01:47:55.296Z,234.43
2018-05-26T01:50:21.754Z,190.00
2018-05-26T01:52:48.220Z,185.43
2018-05-26T01:55:14.644Z,188.53
2018-05-26T01:57:41.057Z,190.83
2018-05-26T02:00:07.505Z,176.53
2018-05-26T02:02:33.949Z,163.90
2018-05-26T02:05:00.383Z,156.23
2018-05-26T02:07:26.908Z,152.77
2018-05-26T02:09:53.301Z,155.00
2018-05-26T02:12:19.880Z,133.87
2018-05-26T02:14:46.440Z,151.00
2018-05-26T02:17:12.967Z,154.70
2018-05-26T02:19:39.531Z,165.30
2018-05-26T02:22:06.798Z,165.00
2018-05-26T02:24:34.079Z,172.60
2018-05-26T02:27:00.616Z,174.53
2018-05-26T02:29:27.113Z,178.07
2018-05-26T02:31:54.398Z,180.23
2018-05-26T02:34:20.960Z,189.67
2018-05-26T02:36:47.504Z,191.00
2018-05-26T02:39:14.100Z,189.10
2018-05-26T02:41:40.624Z,186.30
2018-05-26T02:44:07.152Z,200.23
2018-05-26T02:46:34.436Z,188.37
2018-05-26T02:49:00.962Z,190.50
2018-05-26T02:51:27.565Z,192.70
2018-05-26T02:53:54.822Z,178.90
2018-05-26T02:56:21.370Z,187.80
2018-05-26T02:58:47.898Z,195.37
2018-05-26T03:01:14.452Z,194.60
2018-05-26T03:03:41.011Z,195.67
2018-05-26T03:06:13.569Z,196.57
2018-05-26T03:08:46.073Z,198.27
2018-05-26T03:11:18.624Z,183.53
2018-05-26T03:13:51.100Z,182.53
2018-05-26T03:16:38.115Z,179.13
2018-05-26T03:19:05.343Z,170.67
2018-05-26T03:21:31.771Z,183.60
2018-05-26T03:23:58.258Z,176.57
2018-05-26T03:26:24.704Z,168.27
2018-05-26T03:28:51.153Z,186.80
2018-05-26T03:31:17.584Z,180.07
2018-05-26T03:33:44.054Z,185.03
2018-05-26T03:36:10.438Z,169.30
2018-05-26T03:38:36.928Z,203.60
2018-05-26T03:41:03.319Z,176.20
2018-05-26T03:43:29.749Z,183.00
2018-05-26T03:45:56.146Z,187.00
2018-05-26T03:53:13.433Z,185.80
2018-05-26T03:55:52.048Z,186.67
2018-05-26T03:58:30.626Z,183.67
2018-05-26T04:00:57.862Z,177.73
2018-05-26T04:03:24.312Z,164.27
2018-05-26T04:05:50.782Z,164.33
2018-05-26T04:08:17.213Z,165.27
2018-05-26T04:10:43.710Z,159.20
2018-05-26T04:13:11.930Z,162.40
2018-05-26T04:15:38.394Z,154.67
2018-05-26T04:18:04.857Z,157.33
2018-05-26T04:20:31.291Z,158.20
2018-05-26T04:22:57.753Z,145.07
2018-05-26T04:25:24.958Z,137.60
2018-05-26T04:27:51.402Z,138.97
2018-05-26T04:30:17.826Z,142.63
2018-05-26T04:32:44.234Z,143.43
2018-05-26T04:35:11.668Z,161.67
2018-05-26T04:37:38.102Z,164.17
2018-05-26T04:40:04.531Z,157.07
2018-05-26T04:42:31.000Z,149.67
2018-05-26T04:44:57.502Z,152.23
2018-05-26T04:47:23.940Z,149.73
2018-05-26T04:49:50.397Z,153.43
2018-05-26T04:52:18.897Z,130.23
2018-05-26T04:54:53.227Z,141.17
2018-05-26T04:57:19.695Z,134.60
2018-05-26T04:59:46.200Z,131.20
2018-05-26T05:02:13.422Z,130.03
2018-05-26T05:04:39.880Z,125.27
2018-05-26T05:07:06.312Z,129.43
2018-05-26T05:09:32.739Z,126.23
2018-05-26T05:11:59.928Z,116.63
2018-05-26T05:14:26.384Z,118.47
2018-05-26T05:16:52.768Z,113.97
2018-05-26T05:19:19.181Z,115.13
2018-05-26T05:21:45.570Z,114.30
2018-05-26T05:24:11.968Z,110.17
2018-05-26T05:26:39.150Z,108.77
2018-05-26T05:29:06.541Z,106.00
2018-05-26T05:31:32.967Z,102.03
2018-05-26T05:33:59.366Z,101.57
2018-05-26T05:38:58.613Z,101.23
2018-05-26T05:41:25.819Z,87.73
2018-05-26T05:43:52.229Z,89.30
2018-05-26T05:46:19.520Z,88.37
2018-05-26T05:48:46.032Z,89.53
2018-05-26T05:51:12.555Z,89.57
2018-05-26T05:53:39.807Z,84.77
2018-05-26T05:56:07.038Z,84.73
2018-05-26T05:58:34.292Z,81.43
2018-05-26T06:01:00.855Z,77.30
2018-05-26T06:03:27.419Z,76.33
2018-05-26T06:05:53.945Z,75.00
2018-05-26T06:08:20.466Z,83.13
2018-05-26T06:10:46.985Z,77.00
2018-05-26T06:13:13.525Z,76.30
2018-05-26T06:15:40.772Z,78.60
2018-05-26T06:18:07.310Z,78.23
2018-05-26T06:20:33.876Z,73.33
2018-05-26T06:23:00.375Z,78.73
2018-05-26T06:25:27.683Z,74.30
2018-05-26T06:27:54.208Z,75.23
2018-05-26T06:30:20.698Z,71.30
2018-05-26T06:32:47.933Z,72.00
2018-05-26T06:35:14.479Z,69.30
2018-05-26T06:37:41.110Z,73.13
2018-05-26T06:40:07.622Z,66.63
2018-05-26T06:42:34.115Z,64.97
2018-05-26T06:47:26.141Z,70.37
2018-05-26T06:49:52.541Z,76.43
2018-05-26T06:52:18.976Z,73.75
2018-05-26T06:54:45.420Z,58.53
2018-05-26T06:57:11.825Z,61.93
2018-05-26T06:59:39.249Z,59.60
2018-05-26T07:02:05.707Z,59.28
2018-05-26T07:04:32.130Z,58.23
2018-05-26T07:06:58.648Z,59.10
2018-05-26T07:09:25.208Z,59.58
2018-05-26T07:11:51.609Z,57.85
2018-05-26T07:14:18.815Z,58.55
2018-05-26T07:16:45.292Z,62.55
2018-05-26T07:19:11.682Z,65.12
2018-05-26T07:21:38.101Z,60.20
2018-05-26T07:24:04.523Z,60.15
2018-05-26T07:26:30.984Z,57.78
2018-05-26T07:28:57.393Z,55.88
2018-05-26T07:31:23.816Z,58.33
2018-05-26T07:33:50.220Z,58.22
2018-05-26T07:36:16.651Z,59.30
2018-05-26T07:38:43.069Z,55.90
2018-05-26T07:41:10.257Z,56.50
2018-05-26T07:43:36.683Z,57.25
2018-05-26T07:46:03.867Z,55.90
2018-05-26T07:48:30.294Z,56.10
2018-05-26T07:50:56.701Z,53.50
2018-05-26T07:53:23.908Z,52.60
2018-05-26T07:55:50.448Z,52.55
2018-05-26T07:58:16.877Z,54.35
2018-05-26T08:00:43.323Z,53.53
2018-05-26T08:03:09.784Z,49.67
2018-05-26T08:05:36.276Z,52.17
2018-05-26T08:08:03.737Z,53.17
2018-05-26T08:10:30.179Z,52.22
2018-05-26T08:12:56.610Z,51.35
2018-05-26T08:15:27.998Z,51.67
2018-05-26T08:18:05.264Z,48.67
2018-05-26T08:20:31.813Z,47.80
2018-05-26T08:22:58.225Z,50.78
2018-05-26T08:25:25.374Z,50.85
2018-05-26T08:27:52.528Z,48.87
2018-05-26T08:30:18.955Z,50.08
2018-05-26T08:32:45.394Z,49.47
2018-05-26T08:35:11.835Z,47.67
2018-05-26T08:37:38.268Z,49.50
2018-05-26T08:40:04.718Z,46.53
2018-05-26T08:42:31.157Z,49.42
2018-05-26T08:44:57.576Z,47.05
2018-05-26T08:47:24.155Z,45.35
2018-05-26T08:49:51.374Z,47.35
2018-05-26T08:52:17.800Z,46.65
2018-05-26T08:54:44.308Z,48.38
2018-05-26T08:57:11.579Z,45.63
2018-05-26T08:59:38.044Z,44.90
2018-05-26T09:02:06.114Z,48.83
2018-05-26T09:04:32.567Z,47.42
2018-05-26T09:06:59.797Z,41.30
2018-05-26T09:09:26.276Z,46.03
2018-05-26T09:11:53.399Z,48.13
2018-05-26T09:14:19.929Z,48.50
2018-05-26T09:16:46.349Z,43.47
2018-05-26T09:19:13.561Z,44.42
2018-05-26T09:21:40.144Z,43.10
2018-05-26T09:24:07.398Z,45.65
2018-05-26T09:26:33.879Z,38.70
2018-05-26T09:29:00.459Z,40.22
2018-05-26T09:31:27.971Z,38.63
2018-05-26T09:33:54.481Z,35.50
2018-05-26T09:36:21.038Z,33.92
2018-05-26T09:38:47.554Z,38.72
2018-05-26T09:41:14.782Z,40.50
2018-05-26T09:43:42.082Z,39.53
2018-05-26T09:46:08.588Z,38.30
2018-05-26T09:48:35.096Z,36.38
2018-05-26T09:51:02.344Z,32.92
2018-05-26T09:53:28.889Z,32.55
2018-05-26T09:55:55.406Z,33.83
2018-05-26T09:58:21.946Z,31.67
2018-05-26T10:00:48.497Z,32.63
2018-05-26T10:03:15.776Z,31.98
2018-05-26T10:05:42.285Z,31.80
2018-05-26T10:08:09.535Z,29.65
2018-05-26T10:10:36.788Z,25.33
2018-05-26T10:13:04.026Z,27.65
2018-05-26T10:15:30.536Z,26.65
2018-05-26T10:17:57.040Z,25.77
2018-05-26T10:20:23.563Z,20.60
2018-05-26T10:22:50.102Z,14.85
2018-05-26T10:25:17.254Z,10.13
2018-05-26T10:27:43.642Z,11.02
2018-05-26T10:30:10.048Z,12.35
2018-05-26T10:32:36.543Z,10.57
2018-05-26T10:35:02.981Z,12.02
2018-05-26T10:37:30.112Z,12.10
2018-05-26T10:39:56.529Z,12.00
2018-05-26T10:42:22.971Z,11.60
2018-05-26T10:44:50.189Z,13.43
2018-05-26T10:47:16.635Z,11.20
2018-05-26T10:49:43.014Z,10.32
2018-05-26T10:52:10.241Z,10.82
2018-05-26T10:54:36.727Z,7.45
2018-05-26T10:57:03.169Z,10.80
2018-05-26T10:59:29.594Z,5.43
2018-05-26T11:02:32.683Z,6.65
2018-05-26T11:04:59.233Z,6.60
2018-05-26T11:07:25.753Z,6.43
2018-05-26T11:09:53.030Z,5.85
2018-05-26T11:12:19.576Z,8.82
2018-05-26T11:14:46.080Z,7.12
2018-05-26T11:17:13.344Z,7.30
2018-05-26T11:19:40.868Z,5.82
2018-05-26T11:22:08.124Z,5.93
2018-05-26T11:24:36.401Z,6.35
2018-05-26T11:27:02.916Z,5.50
2018-05-26T11:29:29.423Z,5.32
2018-05-26T11:31:55.968Z,6.70
2018-05-26T11:34:23.487Z,7.07
2018-05-26T11:36:50.053Z,9.07
2018-05-26T11:39:16.651Z,10.45
2018-05-26T11:41:43.898Z,9.02
2018-05-26T11:44:10.412Z,8.95
2018-05-26T11:46:37.672Z,8.30
2018-05-26T11:49:04.980Z,9.70
2018-05-26T11:51:31.559Z,8.65
2018-05-26T11:53:58.815Z,7.70
2018-05-26T11:56:25.390Z,6.20
2018-05-26T11:58:51.986Z,6.80
2018-05-26T12:01:19.262Z,6.85
2018-05-26T12:06:11.935Z,8.50
2018-05-26T12:08:38.387Z,8.95
2018-05-26T12:11:12.992Z,8.50
2018-05-26T12:13:43.420Z,8.50
2018-05-26T12:16:18.906Z,9.73
2018-05-26T12:18:45.376Z,10.02
2018-05-26T12:21:12.537Z,8.55
2018-05-26T12:23:39.002Z,9.15
2018-05-26T12:26:05.434Z,11.35
2018-05-26T12:28:31.943Z,9.57
2018-05-26T12:30:58.371Z,9.25
2018-05-26T12:33:24.898Z,7.35
2018-05-26T12:35:51.330Z,8.25
2018-05-26T12:38:18.550Z,7.53
2018-05-26T12:40:45.945Z,7.90
2018-05-26T12:43:13.247Z,7.10
2018-05-26T12:45:39.679Z,6.60
2018-05-26T12:48:06.247Z,5.53
2018-05-26T12:50:33.632Z,4.93
2018-05-26T12:53:00.037Z,5.40
2018-05-26T12:55:26.655Z,5.20
2018-05-26T12:57:53.085Z,5.12
2018-05-26T13:00:19.701Z,4.70
2018-05-26T13:02:46.168Z,5.03
2018-05-26T13:05:14.394Z,4.30
2018-05-26T13:07:40.857Z,3.60
2018-05-26T13:10:08.547Z,4.10
2018-05-26T13:12:35.000Z,3.37
2018-05-26T13:15:02.272Z,4.03
2018-05-26T13:17:29.849Z,4.90
2018-05-26T13:19:57.007Z,4.00
2018-05-26T13:22:32.021Z,5.03
2018-05-26T13:24:58.626Z,5.93
2018-05-26T13:27:25.236Z,5.10
2018-05-26T13:29:51.740Z,3.95
2018-05-26T13:32:18.311Z,3.95
2018-05-26T13:34:45.634Z,4.80
2018-05-26T13:37:12.175Z,4.22
2018-05-26T13:39:38.689Z,4.12
2018-05-26T13:42:06.231Z,3.83
2018-05-26T13:44:32.778Z,5.05
2018-05-26T13:46:59.312Z,4.32
2018-05-26T13:49:25.840Z,4.97
2018-05-26T13:51:52.361Z,4.68
2018-05-26T13:54:18.982Z,4.72
2018-05-26T13:56:45.466Z,4.75
2018-05-26T13:59:11.967Z,4.00
2018-05-26T14:01:38.576Z,4.43
2018-05-26T14:04:05.207Z,4.93
2018-05-26T14:06:33.841Z,5.87
2018-05-26T14:09:00.407Z,4.20
2018-05-26T14:11:26.978Z,4.27
2018-05-26T14:13:53.568Z,4.25
2018-05-26T14:16:20.865Z,4.07
2018-05-26T14:18:48.176Z,4.20
2018-05-26T14:21:14.710Z,4.47
2018-05-26T14:23:41.252Z,4.20
2018-05-26T14:26:07.858Z,4.50
2018-05-26T14:28:34.332Z,3.97
2018-05-26T14:31:01.848Z,4.22
2018-05-26T14:33:28.676Z,4.32
2018-05-26T14:35:55.121Z,4.55
2018-05-26T14:38:21.560Z,4.80
2018-05-26T14:41:27.286Z,4.10
2018-05-26T14:43:53.743Z,4.78
2018-05-26T14:46:20.215Z,4.07
2018-05-26T14:48:46.641Z,4.18
2018-05-26T14:51:37.160Z,5.62
2018-05-26T14:54:03.704Z,4.87
2018-05-26T14:59:19.499Z,5.30
2018-05-26T15:01:46.756Z,5.00
2018-05-26T15:04:13.359Z,5.05
2018-05-26T15:06:39.873Z,4.87
2018-05-26T15:09:06.466Z,5.00
2018-05-26T15:11:33.702Z,4.28
2018-05-26T15:14:00.212Z,5.35
2018-05-26T15:16:26.718Z,5.70
2018-05-26T15:18:53.269Z,5.95
2018-05-26T15:21:19.777Z,5.57
2018-05-26T15:23:46.309Z,3.55
2018-05-26T15:26:12.838Z,3.42
2018-05-26T15:28:39.430Z,4.35
2018-05-26T15:31:05.923Z,5.25
2018-05-26T15:33:32.412Z,5.37
2018-05-26T15:35:58.922Z,5.05
2018-05-26T15:38:25.674Z,4.35
2018-05-26T15:40:52.199Z,4.82
2018-05-26T15:43:18.747Z,4.47
2018-05-26T15:45:45.243Z,3.62
2018-05-26T15:48:11.730Z,4.15
2018-05-26T15:50:39.015Z,4.05
2018-05-26T15:53:11.478Z,4.30
2018-05-26T15:55:38.029Z,3.85
2018-05-26T16:22:02.190Z,3.25
2018-05-26T16:24:29.292Z,3.35
2018-05-26T16:26:56.435Z,2.83
2018-05-26T16:29:24.019Z,2.45
2018-05-26T16:31:50.539Z,3.40
2018-05-26T16:34:17.860Z,2.75
2018-05-26T16:36:44.402Z,3.12
2018-05-26T16:39:10.967Z,3.37
2018-05-26T16:41:37.490Z,2.80
2018-05-26T16:44:04.032Z,3.30
2018-05-26T16:46:30.626Z,3.12
2018-05-26T16:48:59.372Z,2.78
2018-05-26T16:51:25.889Z,3.17
2018-05-26T16:53:52.461Z,3.00
2018-05-26T16:56:18.988Z,2.85
2018-05-26T16:58:46.309Z,3.42
2018-05-26T17:01:12.858Z,3.30
2018-05-26T17:03:40.186Z,3.60
2018-05-26T17:06:06.698Z,2.97
2018-05-26T17:08:33.406Z,3.10
2018-05-26T17:11:00.668Z,3.40
2018-05-26T17:13:28.376Z,2.53
2018-05-26T17:15:56.379Z,3.10
2018-05-26T17:18:22.937Z,3.47
2018-05-26T17:20:50.560Z,3.25
2018-05-26T17:23:17.210Z,2.75
2018-05-26T17:25:43.740Z,3.25
2018-05-26T17:28:11.031Z,2.92
2018-05-26T17:30:37.553Z,3.35
2018-05-26T17:33:04.946Z,3.65
2018-05-26T17:35:31.430Z,3.05
2018-05-26T17:37:58.053Z,3.10
2018-05-26T17:40:24.466Z,3.17
2018-05-26T17:42:51.095Z,3.53
2018-05-26T17:45:17.523Z,3.83
2018-05-26T17:47:43.973Z,3.15
2018-05-26T17:50:10.411Z,3.45
2018-05-26T17:52:36.831Z,3.20
2018-05-26T17:55:03.293Z,3.50
2018-05-26T17:57:30.642Z,2.92
2018-05-26T17:59:57.149Z,2.95
2018-05-26T18:02:24.482Z,2.70
2018-05-26T18:04:51.185Z,3.10
2018-05-26T18:07:17.690Z,2.90
2018-05-26T18:09:44.249Z,2.67
2018-05-26T18:12:11.447Z,3.42
2018-05-26T18:14:37.966Z,2.60
2018-05-26T18:17:04.396Z,3.35
2018-05-26T18:19:32.002Z,3.60
2018-05-26T18:21:58.411Z,3.30
2018-05-26T18:24:24.976Z,3.95
2018-05-26T18:26:52.377Z,3.95
2018-05-26T18:29:18.869Z,3.45
2018-05-26T18:31:46.018Z,3.70
2018-05-26T18:34:12.567Z,3.90
2018-05-26T18:36:38.996Z,4.12
2018-05-26T18:39:06.327Z,4.07
2018-05-26T18:41:32.718Z,4.37
2018-05-26T18:43:59.392Z,3.92
2018-05-26T18:46:25.983Z,3.78
2018-05-26T18:48:56.401Z,3.60
2018-05-26T18:51:28.204Z,3.70
2018-05-26T18:53:55.429Z,3.55
2018-05-26T18:56:22.275Z,3.55
2018-05-26T18:58:48.684Z,3.40
2018-05-26T19:01:15.159Z,4.00
2018-05-26T19:03:42.325Z,3.22
2018-05-26T19:06:08.770Z,3.95
2018-05-26T19:08:35.214Z,3.95
2018-05-26T19:11:01.618Z,3.83
2018-05-26T19:13:28.029Z,3.70
2018-05-26T19:15:55.243Z,3.83
2018-05-26T19:18:21.677Z,4.43
2018-05-26T19:20:49.884Z,4.40
2018-05-26T19:23:17.033Z,4.57
2018-05-26T19:25:43.459Z,3.80
2018-05-26T19:28:10.645Z,3.92
2018-05-26T19:30:37.040Z,4.43
2018-05-26T19:33:09.499Z,3.83
2018-05-26T19:35:44.990Z,4.03
2018-05-26T19:38:12.239Z,4.47
2018-05-26T19:40:38.660Z,4.12
2018-05-26T19:43:05.093Z,4.90
2018-05-26T19:45:32.283Z,4.50
2018-05-26T19:47:58.714Z,4.78
2018-05-26T19:50:25.884Z,5.03
2018-05-26T19:52:52.284Z,4.80
2018-05-26T19:55:19.470Z,5.65
2018-05-26T19:57:45.859Z,4.95
2018-05-26T20:00:12.323Z,5.93
2018-05-26T20:02:38.777Z,5.37
2018-05-26T20:05:05.304Z,4.95
2018-05-26T20:07:31.748Z,4.87
2018-05-26T20:09:58.276Z,4.78
2018-05-26T20:12:24.670Z,4.93
2018-05-26T20:14:51.141Z,5.10
2018-05-26T20:17:17.560Z,4.65
2018-05-26T20:19:44.115Z,4.25
2018-05-26T20:22:10.517Z,4.30
2018-05-26T20:24:38.850Z,4.43
2018-05-26T20:27:06.044Z,4.80
2018-05-26T20:29:32.494Z,4.53
2018-05-26T20:31:58.901Z,4.40
2018-05-26T20:34:25.345Z,5.00
2018-05-26T20:36:51.732Z,4.70
2018-05-26T20:39:18.174Z,11.25
2018-05-26T20:41:44.624Z,4.55
2018-05-26T20:44:11.031Z,4.90
2018-05-26T20:46:37.487Z,5.30
2018-05-26T21:21:27.723Z,5.15
2018-05-26T21:23:54.254Z,5.90
2018-05-26T21:26:20.676Z,6.32
2018-05-26T21:28:47.260Z,6.82
2018-05-26T21:31:13.695Z,7.37
2018-05-26T21:33:40.156Z,8.40
2018-05-26T21:36:06.561Z,7.68
2018-05-26T21:38:37.652Z,7.18
2018-05-26T21:51:23.850Z,7.30
2018-05-26T21:53:50.318Z,6.15
2018-05-26T21:56:17.458Z,6.85
2018-05-26T21:58:44.649Z,6.18
2018-05-26T22:01:11.041Z,6.85
2018-05-26T22:03:37.489Z,7.10
2018-05-26T22:06:04.642Z,7.07
2018-05-26T22:08:31.098Z,7.15
2018-05-26T22:10:57.530Z,7.53
2018-05-26T22:13:24.015Z,7.25
2018-05-26T22:15:51.201Z,7.20
2018-05-26T22:18:17.610Z,7.60
2018-05-26T22:20:44.756Z,7.93
2018-05-26T22:23:20.191Z,7.55
2018-05-26T22:29:21.246Z,7.40
2018-05-26T22:32:03.307Z,8.32
2018-05-26T22:34:30.429Z,7.82
2018-05-26T22:36:57.636Z,8.20
2018-05-26T22:39:24.066Z,7.97
2018-05-26T22:41:51.513Z,7.85
2018-05-26T22:44:18.651Z,7.53
2018-05-26T22:46:45.905Z,9.13
2018-05-26T22:49:13.036Z,7.87
2018-05-26T22:51:41.266Z,8.85
2018-05-26T22:54:07.804Z,8.90
2018-05-26T22:56:34.238Z,7.55
2018-05-26T22:59:00.735Z,8.68
2018-05-26T23:01:27.885Z,8.32
2018-05-26T23:03:55.335Z,8.70
2018-05-26T23:06:21.730Z,9.02
2018-05-26T23:08:48.213Z,9.10
2018-05-26T23:11:14.620Z,9.43
2018-05-26T23:13:41.805Z,9.90
2018-05-26T23:16:08.223Z,9.75
2018-05-26T23:18:34.657Z,10.02
2018-05-26T23:47:37.603Z,10.73
2018-05-26T23:50:22.980Z,10.15
2018-05-26T23:52:50.194Z,9.93
2018-05-26T23:55:16.726Z,10.50
2018-05-26T23:57:43.175Z,10.13
